createdAt,value
2022-08-26T00:02:10.614Z,99874.22
2022-08-26T00:04:40.070Z,99859.53
2022-08-26T00:07:07.460Z,99936.91
2022-08-26T00:09:38.950Z,99924.81
2022-08-26T00:12:07.586Z,99926.47
2022-08-26T00:14:38.258Z,99871.00
2022-08-26T00:17:05.208Z,99852.09
2022-08-26T00:19:40.783Z,99826.94
2022-08-26T00:22:12.282Z,99937.41
2022-08-26T00:24:39.252Z,99933.09
2022-08-26T00:27:06.500Z,99934.19
2022-08-26T00:29:37.627Z,99934.28
2022-08-26T00:32:09.291Z,99803.09
2022-08-26T00:34:38.932Z,99751.91
2022-08-26T00:37:09.081Z,99930.91
2022-08-26T00:39:37.065Z,99922.97
2022-08-26T00:42:07.224Z,99844.19
2022-08-26T00:44:34.005Z,99909.38
2022-08-26T00:47:03.467Z,99926.84
2022-08-26T00:49:43.561Z,99921.84
2022-08-26T00:52:17.269Z,99888.69
2022-08-26T00:54:50.585Z,99871.56
2022-08-26T00:57:20.336Z,99865.56
2022-08-26T00:59:49.385Z,99927.41
2022-08-26T01:02:20.143Z,99808.28
2022-08-26T01:04:55.834Z,99909.13
2022-08-26T01:07:26.274Z,99930.13
2022-08-26T01:09:55.117Z,99922.19
2022-08-26T01:12:24.152Z,99845.88
2022-08-26T01:14:55.731Z,99928.44
2022-08-26T01:17:23.493Z,99920.56
2022-08-26T01:19:53.729Z,99905.91
2022-08-26T01:22:26.746Z,99799.06
2022-08-26T01:24:57.777Z,99882.50
2022-08-26T01:27:24.938Z,99885.88
2022-08-26T01:29:57.176Z,99923.56
2022-08-26T01:32:27.743Z,99894.88
2022-08-26T01:34:54.753Z,99913.13
2022-08-26T01:37:27.179Z,99915.06
2022-08-26T01:39:58.242Z,99920.50
2022-08-26T01:42:28.620Z,99917.91
2022-08-26T01:45:04.160Z,99916.19
2022-08-26T01:47:32.337Z,99922.41
2022-08-26T01:50:05.923Z,99915.41
2022-08-26T01:52:33.664Z,99850.31
2022-08-26T01:55:03.011Z,99689.53
2022-08-26T01:57:30.573Z,99885.06
2022-08-26T01:59:59.611Z,99832.19
2022-08-26T02:02:31.099Z,99916.56
2022-08-26T02:05:00.656Z,99913.97
2022-08-26T02:07:28.283Z,99851.34
2022-08-26T02:09:55.278Z,99917.56
2022-08-26T02:12:26.255Z,99781.06
2022-08-26T02:14:59.669Z,99910.75
2022-08-26T02:17:34.874Z,99752.81
2022-08-26T02:20:02.595Z,99851.22
2022-08-26T02:22:30.848Z,99918.16
2022-08-26T02:25:00.557Z,99851.97
2022-08-26T02:27:34.057Z,99913.72
2022-08-26T02:30:09.415Z,99780.78
2022-08-26T02:32:41.303Z,99791.22
2022-08-26T02:35:09.967Z,99896.41
2022-08-26T02:37:39.548Z,99765.91
2022-08-26T02:40:10.883Z,99913.00
2022-08-26T02:42:37.701Z,99908.63
2022-08-26T02:45:06.031Z,99912.19
2022-08-26T02:47:34.285Z,99819.28
2022-08-26T02:50:01.858Z,99824.59
2022-08-26T02:52:28.608Z,99915.09
2022-08-26T02:54:59.821Z,99914.25
2022-08-26T02:57:28.838Z,99916.88
2022-08-26T02:59:55.578Z,99923.03
2022-08-26T03:02:25.003Z,99920.41
2022-08-26T03:04:58.110Z,99908.03
2022-08-26T03:07:32.081Z,99918.66
2022-08-26T03:10:01.367Z,99912.50
2022-08-26T03:12:35.568Z,99842.94
2022-08-26T03:15:15.895Z,99903.75
2022-08-26T03:17:44.738Z,99482.25
2022-08-26T03:20:15.568Z,99804.09
2022-08-26T03:22:44.645Z,99902.91
2022-08-26T03:25:16.259Z,99901.19
2022-08-26T03:27:43.330Z,99904.88
2022-08-26T03:30:30.559Z,99784.06
2022-08-26T03:32:57.499Z,99899.66
2022-08-26T03:35:28.104Z,99859.78
2022-08-26T03:37:55.366Z,99897.31
2022-08-26T03:40:29.055Z,99894.88
2022-08-26T03:42:59.095Z,99787.97
2022-08-26T03:45:26.842Z,99830.66
2022-08-26T03:47:58.351Z,99900.19
2022-08-26T03:50:25.156Z,99893.06
2022-08-26T03:52:54.101Z,99891.28
2022-08-26T03:55:28.532Z,99869.59
2022-08-26T03:57:55.409Z,99804.38
2022-08-26T04:00:25.447Z,99786.28
2022-08-26T04:02:54.609Z,99877.88
2022-08-26T04:05:22.781Z,99866.56
2022-08-26T04:07:49.924Z,99904.91
2022-08-26T04:10:20.061Z,99726.53
2022-08-26T04:12:47.411Z,99847.41
2022-08-26T04:15:15.746Z,99906.59
2022-08-26T04:17:43.181Z,99875.25
2022-08-26T04:20:19.820Z,99796.97
2022-08-26T04:22:49.391Z,99782.97
2022-08-26T04:25:21.356Z,99896.81
2022-08-26T04:27:50.696Z,99908.28
2022-08-26T04:30:20.062Z,99902.22
2022-08-26T04:32:50.669Z,99859.50
2022-08-26T04:35:25.675Z,99770.75
2022-08-26T04:37:53.329Z,99775.97
2022-08-26T04:40:23.457Z,99868.34
2022-08-26T04:42:52.604Z,99829.97
2022-08-26T04:45:27.074Z,99896.19
2022-08-26T04:47:57.775Z,99897.06
2022-08-26T04:50:25.814Z,99903.13
2022-08-26T04:52:56.650Z,99903.94
2022-08-26T04:55:37.264Z,99668.03
2022-08-26T04:58:10.318Z,99902.72
2022-08-26T05:00:39.934Z,99814.75
2022-08-26T05:03:10.360Z,99884.38
2022-08-26T05:05:44.420Z,99901.56
2022-08-26T05:08:12.455Z,99899.72
2022-08-26T05:10:43.926Z,99801.44
2022-08-26T05:13:16.937Z,99880.56
2022-08-26T05:15:47.700Z,99730.03
2022-08-26T05:18:17.438Z,99871.00
2022-08-26T05:20:49.763Z,99822.13
2022-08-26T05:23:17.480Z,99900.34
2022-08-26T05:25:48.109Z,99826.53
2022-08-26T05:28:16.941Z,99902.78
2022-08-26T05:30:44.621Z,99831.56
2022-08-26T05:33:14.100Z,99894.97
2022-08-26T05:35:46.637Z,99870.50
2022-08-26T05:38:17.585Z,99905.25
2022-08-26T05:40:52.716Z,99870.31
2022-08-26T05:43:20.371Z,99901.47
2022-08-26T05:45:49.537Z,99906.72
2022-08-26T05:48:22.760Z,99907.50
2022-08-26T05:50:56.075Z,99772.72
2022-08-26T05:53:26.020Z,99769.19
2022-08-26T05:55:54.519Z,99906.31
2022-08-26T05:58:26.716Z,99911.41
2022-08-26T06:01:04.143Z,99913.91
2022-08-26T06:03:38.795Z,99812.38
2022-08-26T06:06:20.120Z,99717.31
2022-08-26T06:08:48.621Z,99882.25
2022-08-26T06:11:25.610Z,99914.94
2022-08-26T06:14:02.718Z,99780.06
2022-08-26T06:16:31.207Z,99929.53
2022-08-26T06:19:10.236Z,99904.88
2022-08-26T06:21:42.416Z,99790.78
2022-08-26T06:24:34.597Z,99898.38
2022-08-26T06:27:09.604Z,99960.47
2022-08-26T06:29:40.466Z,99923.13
2022-08-26T06:32:11.458Z,99924.75
2022-08-26T06:34:38.586Z,99876.00
2022-08-26T06:37:08.817Z,99925.25
2022-08-26T06:39:35.960Z,99867.66
2022-08-26T06:42:08.665Z,99837.13
2022-08-26T06:44:41.070Z,99921.06
2022-08-26T06:47:08.350Z,99925.19
2022-08-26T06:49:37.688Z,99923.22
2022-08-26T06:52:04.641Z,99928.34
2022-08-26T06:54:31.845Z,99875.31
2022-08-26T06:57:01.160Z,99707.34
2022-08-26T06:59:31.280Z,99926.03
2022-08-26T07:01:58.612Z,99779.91
2022-08-26T07:04:28.325Z,99908.13
2022-08-26T07:06:58.041Z,99796.81
2022-08-26T07:09:29.238Z,99907.66
2022-08-26T07:11:56.437Z,99915.09
2022-08-26T07:14:26.181Z,99803.69
2022-08-26T07:16:58.302Z,99686.41
2022-08-26T07:19:31.601Z,99922.19
2022-08-26T07:22:03.334Z,99921.09
2022-08-26T07:24:33.489Z,99880.91
2022-08-26T07:27:03.584Z,99806.75
2022-08-26T07:29:34.929Z,99922.06
2022-08-26T07:32:02.059Z,99924.31
2022-08-26T07:34:29.888Z,99917.00
2022-08-26T07:36:57.170Z,99913.97
2022-08-26T07:39:25.750Z,99917.16
2022-08-26T07:41:52.772Z,99890.13
2022-08-26T07:44:23.101Z,99892.00
2022-08-26T07:46:53.150Z,99900.50
2022-08-26T07:49:22.385Z,99917.59
2022-08-26T07:51:50.393Z,99914.50
2022-08-26T07:54:17.978Z,99909.88
2022-08-26T07:56:46.185Z,99798.03
2022-08-26T07:59:14.055Z,99905.81
2022-08-26T08:01:44.757Z,99912.53
2022-08-26T08:04:14.266Z,99783.94
2022-08-26T08:06:41.818Z,99910.97
2022-08-26T08:09:15.619Z,99773.56
2022-08-26T08:11:44.896Z,99820.78
2022-08-26T08:14:13.151Z,99802.13
2022-08-26T08:16:46.004Z,99900.75
2022-08-26T08:19:14.599Z,99739.84
2022-08-26T08:21:44.431Z,99900.22
2022-08-26T08:24:11.382Z,99910.66
2022-08-26T08:26:38.357Z,99767.13
2022-08-26T08:29:05.562Z,99741.78
2022-08-26T08:34:21.615Z,99896.59
2022-08-26T08:36:53.540Z,99781.97
2022-08-26T08:39:23.748Z,99890.63
2022-08-26T08:41:59.686Z,99885.91
2022-08-26T08:47:04.179Z,99777.19
2022-08-26T08:49:32.568Z,99760.63
2022-08-26T08:52:26.658Z,99748.16
2022-08-26T08:54:54.017Z,99767.75
2022-08-26T08:57:28.144Z,99742.28
2022-08-26T09:00:14.335Z,99826.31
2022-08-26T09:03:00.047Z,99879.84
2022-08-26T09:05:40.243Z,99759.09
2022-08-26T09:08:21.352Z,99608.19
2022-08-26T09:10:58.660Z,99820.28
2022-08-26T09:13:27.134Z,99870.13
2022-08-26T09:16:10.321Z,99841.31
2022-08-26T09:19:04.958Z,99794.72
2022-08-26T09:21:32.591Z,99765.47
2022-08-26T09:23:59.936Z,99864.38
2022-08-26T09:26:45.736Z,99861.06
2022-08-26T09:29:24.115Z,99774.16
2022-08-26T09:32:16.357Z,99856.38
2022-08-26T09:35:00.777Z,99797.41
2022-08-26T09:37:41.720Z,99807.03
2022-08-26T09:40:27.377Z,99852.50
2022-08-26T09:43:22.451Z,99846.47
2022-08-26T09:46:10.007Z,99786.81
2022-08-26T09:48:41.045Z,99790.13
2022-08-26T09:51:27.779Z,99732.16
2022-08-26T09:54:08.152Z,99729.72
2022-08-26T09:56:37.573Z,99778.56
2022-08-26T09:59:11.130Z,99745.94
2022-08-26T10:01:44.959Z,99726.63
2022-08-26T10:04:21.880Z,99847.31
2022-08-26T10:07:06.013Z,99837.47
2022-08-26T10:09:39.949Z,99835.84
2022-08-26T10:12:18.422Z,99834.91
2022-08-26T10:14:50.539Z,99565.84
2022-08-26T10:17:46.222Z,99756.69
2022-08-26T10:20:23.127Z,99811.41
2022-08-26T10:22:54.311Z,99841.16
2022-08-26T10:25:26.161Z,99674.50
2022-08-26T10:28:10.467Z,99833.09
2022-08-26T10:30:45.541Z,99744.91
2022-08-26T10:33:15.365Z,99787.00
2022-08-26T10:35:57.015Z,99825.72
2022-08-26T10:38:36.000Z,99718.03
2022-08-26T10:41:24.108Z,99825.28
2022-08-26T10:43:59.433Z,99669.44
2022-08-26T10:46:37.292Z,99806.59
2022-08-26T10:49:14.003Z,99812.22
2022-08-26T10:51:54.806Z,99706.81
2022-08-26T10:54:46.273Z,99800.25
2022-08-26T10:57:24.671Z,99810.28
2022-08-26T10:59:59.245Z,99797.97
2022-08-26T11:02:47.111Z,99541.22
2022-08-26T11:05:21.795Z,99682.63
2022-08-26T11:07:54.854Z,99682.06
2022-08-26T11:10:21.975Z,99791.16
2022-08-26T11:13:04.636Z,99794.16
2022-08-26T11:15:31.616Z,99789.06
2022-08-26T11:18:13.395Z,99673.31
2022-08-26T11:20:47.432Z,99766.66
2022-08-26T11:23:23.796Z,99784.31
2022-08-26T11:25:56.200Z,99788.16
2022-08-26T11:28:36.405Z,99783.88
2022-08-26T11:31:04.693Z,99772.88
2022-08-26T11:33:46.170Z,99776.78
2022-08-26T11:36:28.765Z,99732.56
2022-08-26T11:38:57.877Z,99701.56
2022-08-26T11:41:29.952Z,99750.03
2022-08-26T11:43:57.680Z,99527.81
2022-08-26T11:46:28.361Z,99549.44
2022-08-26T11:49:06.810Z,99505.84
2022-08-26T11:51:40.100Z,99687.44
2022-08-26T11:54:26.953Z,99749.25
2022-08-26T11:57:07.796Z,99695.91
2022-08-26T11:59:39.954Z,99750.78
2022-08-26T12:02:11.594Z,99753.00
2022-08-26T12:04:39.923Z,99656.38
2022-08-26T12:07:08.865Z,99743.03
2022-08-26T12:09:50.469Z,99711.44
2022-08-26T12:12:23.063Z,99738.56
2022-08-26T12:14:51.664Z,99623.03
2022-08-26T12:17:27.959Z,99731.34
2022-08-26T12:19:54.835Z,99585.06
2022-08-26T12:22:28.802Z,99733.59
2022-08-26T12:25:00.114Z,99687.28
2022-08-26T12:27:35.558Z,99629.66
2022-08-26T12:30:02.706Z,99718.78
2022-08-26T12:32:31.956Z,99570.91
2022-08-26T12:37:35.345Z,99726.47
2022-08-26T12:40:25.888Z,99711.16
2022-08-26T12:42:53.356Z,99520.09
2022-08-26T12:45:54.996Z,99709.03
2022-08-26T12:48:29.885Z,99535.56
2022-08-26T12:51:00.418Z,99624.59
2022-08-26T12:53:32.808Z,99536.75
2022-08-26T12:56:03.523Z,99541.72
2022-08-26T12:58:38.496Z,99690.34
2022-08-26T13:01:06.128Z,99699.53
2022-08-26T13:03:39.451Z,99691.13
2022-08-26T13:06:31.139Z,99695.50
2022-08-26T13:09:10.005Z,99687.84
2022-08-26T13:11:39.725Z,99685.19
2022-08-26T13:14:07.696Z,99696.13
2022-08-26T13:16:52.208Z,99576.59
2022-08-26T13:19:23.842Z,99545.22
2022-08-26T13:21:55.761Z,99501.50
2022-08-26T13:24:34.685Z,99668.59
2022-08-26T13:34:52.771Z,99674.81
2022-08-26T13:41:57.829Z,99262.78
2022-08-26T13:45:07.053Z,99653.22
2022-08-26T13:54:37.695Z,99379.03
2022-08-26T14:00:15.842Z,99411.63
2022-08-26T14:02:43.139Z,99413.59
2022-08-26T14:05:11.899Z,99500.88
2022-08-26T14:10:43.733Z,99644.53
2022-08-26T14:13:13.935Z,99642.19
2022-08-26T14:15:42.503Z,99647.66
2022-08-26T14:18:10.657Z,99619.72
2022-08-26T14:20:38.601Z,99533.38
2022-08-26T14:23:21.071Z,99655.50
2022-08-26T14:25:50.840Z,99658.88
2022-08-26T14:28:18.303Z,99660.59
2022-08-26T14:30:48.252Z,99631.34
2022-08-26T14:33:18.943Z,99581.78
2022-08-26T14:35:49.108Z,99661.19
2022-08-26T14:38:19.444Z,99651.94
2022-08-26T14:40:45.956Z,99652.22
2022-08-26T14:43:18.722Z,99657.50
2022-08-26T14:45:45.698Z,99657.34
2022-08-26T14:48:19.234Z,99666.53
2022-08-26T14:50:50.803Z,99653.78
2022-08-26T14:53:36.669Z,99659.75
2022-08-26T14:56:04.115Z,99572.09
2022-08-26T14:58:34.961Z,99651.91
2022-08-26T15:01:04.555Z,99652.13
2022-08-26T15:03:33.768Z,99647.84
2022-08-26T15:06:03.440Z,99616.72
2022-08-26T15:08:31.069Z,99637.28
2022-08-26T15:11:00.432Z,99522.78
2022-08-26T15:13:27.930Z,99635.16
2022-08-26T15:15:57.788Z,99626.00
2022-08-26T15:18:27.142Z,99593.31
2022-08-26T15:20:58.824Z,99631.50
2022-08-26T15:23:26.186Z,99530.06
2022-08-26T15:25:56.018Z,99614.44
2022-08-26T15:28:23.257Z,99618.56
2022-08-26T15:30:51.126Z,99564.00
2022-08-26T15:33:21.527Z,99517.91
2022-08-26T15:35:50.789Z,99542.75
2022-08-26T15:38:18.129Z,99610.97
2022-08-26T15:40:47.692Z,99605.25
2022-08-26T15:43:27.883Z,99611.50
2022-08-26T15:45:57.820Z,99610.81
2022-08-26T15:48:24.875Z,99603.34
2022-08-26T15:50:53.545Z,99605.69
2022-08-26T15:53:24.049Z,99569.34
2022-08-26T15:55:58.829Z,99601.25
2022-08-26T15:58:26.434Z,99592.56
2022-08-26T16:00:56.698Z,99534.16
2022-08-26T16:03:28.334Z,99581.53
2022-08-26T16:05:55.448Z,99582.75
2022-08-26T16:08:22.402Z,99582.28
2022-08-26T16:10:50.885Z,99581.59
2022-08-26T16:13:21.307Z,99442.72
2022-08-26T16:15:48.397Z,99518.72
2022-08-26T16:18:15.993Z,99526.81
2022-08-26T16:21:05.021Z,99539.06
2022-08-26T16:23:45.907Z,99558.75
2022-08-26T16:26:15.501Z,99448.41
2022-08-26T16:28:44.588Z,99578.66
2022-08-26T16:31:15.042Z,99596.78
2022-08-26T16:33:44.162Z,99529.16
2022-08-26T16:36:17.564Z,99515.97
2022-08-26T16:38:56.308Z,99511.22
2022-08-26T16:41:25.130Z,99595.59
2022-08-26T16:43:52.394Z,99582.25
2022-08-26T16:46:23.735Z,99553.53
2022-08-26T16:48:53.631Z,99559.25
2022-08-26T16:51:27.182Z,99550.59
2022-08-26T16:53:55.614Z,99520.44
2022-08-26T16:56:33.427Z,99593.53
2022-08-26T16:59:12.023Z,99343.59
2022-08-26T17:01:43.427Z,99585.00
2022-08-26T17:04:10.175Z,99586.53
2022-08-26T17:06:37.040Z,99534.19
2022-08-26T17:09:04.268Z,99429.34
2022-08-26T17:11:31.034Z,99583.13
2022-08-26T17:14:00.157Z,99577.97
2022-08-26T17:16:27.384Z,99492.69
2022-08-26T17:18:56.320Z,99592.81
2022-08-26T17:21:23.333Z,99514.31
2022-08-26T17:23:50.167Z,99589.97
2022-08-26T17:26:19.806Z,99452.25
2022-08-26T17:28:46.569Z,99595.72
2022-08-26T17:31:13.612Z,99504.59
2022-08-26T17:33:40.442Z,99594.66
2022-08-26T17:36:08.756Z,99602.13
2022-08-26T17:38:41.632Z,99601.19
2022-08-26T17:41:17.120Z,99595.06
2022-08-26T17:43:46.208Z,99595.00
2022-08-26T17:46:13.091Z,99591.00
2022-08-26T17:48:42.725Z,99589.66
2022-08-26T17:51:14.638Z,99601.22
2022-08-26T17:53:42.364Z,99513.19
2022-08-26T17:56:12.469Z,99487.44
2022-08-26T17:58:51.096Z,99521.75
2022-08-26T18:01:20.603Z,99597.78
2022-08-26T18:03:47.905Z,99545.91
2022-08-26T18:06:16.933Z,99609.59
2022-08-26T18:08:44.905Z,99599.34
2022-08-26T18:11:14.389Z,99575.94
2022-08-26T18:13:47.050Z,99315.22
2022-08-26T18:16:20.162Z,99496.69
2022-08-26T18:18:48.578Z,99607.25
2022-08-26T18:21:18.142Z,99599.63
2022-08-26T18:23:49.262Z,99595.94
2022-08-26T18:26:22.925Z,99612.94
2022-08-26T18:28:52.730Z,99583.03
2022-08-26T18:31:27.765Z,99511.72
2022-08-26T18:33:54.733Z,99603.53
2022-08-26T18:36:30.119Z,99603.97
2022-08-26T18:39:03.383Z,99543.16
2022-08-26T18:41:34.728Z,99608.13
2022-08-26T18:44:51.802Z,99611.25
2022-08-26T18:47:30.258Z,99611.56
2022-08-26T18:50:05.931Z,99174.78
2022-08-26T18:52:36.696Z,99499.97
2022-08-26T18:55:51.162Z,99506.78
2022-08-26T18:58:20.210Z,99482.84
2022-08-26T19:00:52.162Z,99621.16
2022-08-26T19:03:19.722Z,99513.06
2022-08-26T19:06:17.094Z,99555.66
2022-08-26T19:09:39.062Z,99296.31
2022-08-26T19:12:26.971Z,99626.97
2022-08-26T19:14:54.489Z,99517.13
2022-08-26T19:17:22.658Z,99540.19
2022-08-26T19:19:49.814Z,99629.16
2022-08-26T19:22:19.159Z,99635.66
2022-08-26T19:25:57.060Z,99624.38
2022-08-26T19:28:53.091Z,99635.91
2022-08-26T19:32:10.594Z,99633.38
2022-08-26T19:34:40.482Z,99635.50
2022-08-26T19:37:07.865Z,99305.03
2022-08-26T19:39:35.155Z,99430.28
2022-08-26T19:42:08.960Z,99438.38
2022-08-26T19:48:15.759Z,99639.97
2022-08-26T19:50:58.795Z,99638.47
2022-08-26T19:54:02.587Z,99647.53
2022-08-26T19:56:29.163Z,99650.31
2022-08-26T19:58:58.450Z,99649.59
2022-08-26T20:05:11.578Z,99654.41
2022-08-26T20:07:48.969Z,99650.31
2022-08-26T20:10:17.438Z,99657.72
2022-08-26T20:12:44.646Z,99582.47
2022-08-26T20:15:13.231Z,99657.34
2022-08-26T20:17:44.280Z,99670.81
2022-08-26T20:20:33.242Z,99665.03
2022-08-26T20:23:01.824Z,99616.25
2022-08-26T20:25:28.684Z,99574.81
2022-08-26T20:27:55.530Z,99676.44
2022-08-26T20:30:22.542Z,99666.78
2022-08-26T20:32:49.279Z,99588.34
2022-08-26T20:35:16.121Z,99669.81
2022-08-26T20:37:45.249Z,99657.13
2022-08-26T20:40:15.742Z,99522.88
2022-08-26T20:42:45.005Z,99572.06
2022-08-26T20:45:14.613Z,99637.06
2022-08-26T20:47:43.638Z,99669.00
2022-08-26T20:50:13.257Z,99678.78
2022-08-26T20:52:40.033Z,99679.72
2022-08-26T20:55:10.538Z,99713.63
2022-08-26T20:57:43.230Z,99608.59
2022-08-26T21:00:12.965Z,99691.88
2022-08-26T21:02:46.270Z,99624.41
2022-08-26T21:05:13.706Z,99661.06
2022-08-26T21:07:43.056Z,99655.00
2022-08-26T21:10:14.790Z,99645.75
2022-08-26T21:12:41.500Z,99669.97
2022-08-26T21:15:09.022Z,99698.63
2022-08-26T21:17:38.078Z,99697.03
2022-08-26T21:20:05.590Z,99664.16
2022-08-26T21:22:32.383Z,99700.81
2022-08-26T21:24:59.674Z,99708.19
2022-08-26T21:27:27.907Z,99679.63
2022-08-26T21:29:54.993Z,99706.59
2022-08-26T21:32:22.184Z,99645.19
2022-08-26T21:34:48.889Z,99681.47
2022-08-26T21:37:20.307Z,99705.84
2022-08-26T21:39:55.309Z,99651.53
2022-08-26T21:42:24.806Z,99706.94
2022-08-26T21:44:53.346Z,99577.25
2022-08-26T21:47:21.188Z,99636.34
2022-08-26T21:49:51.306Z,99665.72
2022-08-26T21:52:18.267Z,99670.28
2022-08-26T21:54:49.593Z,99712.13
2022-08-26T21:57:19.141Z,99707.78
2022-08-26T21:59:51.069Z,99702.66
2022-08-26T22:02:20.587Z,99702.75
2022-08-26T22:04:48.942Z,99696.78
2022-08-26T22:07:18.267Z,99699.63
2022-08-26T22:09:45.224Z,99703.38
2022-08-26T22:12:16.772Z,99700.84
2022-08-26T22:14:43.719Z,99700.22
2022-08-26T22:17:10.437Z,99585.53
2022-08-26T22:19:43.349Z,99697.53
2022-08-26T22:22:13.220Z,99592.28
2022-08-26T22:24:43.254Z,99701.25
2022-08-26T22:27:15.984Z,99699.44
2022-08-26T22:29:42.756Z,99693.19
2022-08-26T22:32:09.482Z,99699.38
2022-08-26T22:34:38.510Z,99665.50
2022-08-26T22:37:08.195Z,99682.75
2022-08-26T22:39:38.232Z,99698.69
2022-08-26T22:42:07.417Z,99540.06
2022-08-26T22:44:37.235Z,99690.19
2022-08-26T22:47:04.169Z,99676.28
2022-08-26T22:49:31.741Z,99679.06
2022-08-26T22:51:58.708Z,99681.81
2022-08-26T22:54:25.465Z,99674.03
2022-08-26T22:56:52.209Z,99683.94
2022-08-26T22:59:19.044Z,99618.34
2022-08-26T23:01:49.374Z,99679.03
2022-08-26T23:04:16.200Z,99676.59
2022-08-26T23:06:47.319Z,99518.16
2022-08-26T23:09:17.117Z,99592.09
2022-08-26T23:11:47.395Z,99682.28
2022-08-26T23:14:14.585Z,99588.97
2022-08-26T23:16:44.674Z,99679.03
2022-08-26T23:19:15.203Z,99674.78
2022-08-26T23:21:42.005Z,99683.69
2022-08-26T23:24:14.981Z,99601.38
2022-08-26T23:26:42.311Z,99676.91
2022-08-26T23:29:10.552Z,99677.09
2022-08-26T23:31:41.209Z,99658.34
2022-08-26T23:34:29.353Z,99499.03
2022-08-26T23:36:58.996Z,99663.53
2022-08-26T23:39:29.295Z,99583.75
2022-08-26T23:41:58.462Z,99643.59
2022-08-26T23:44:26.541Z,99661.09
2022-08-26T23:46:53.490Z,99660.31
2022-08-26T23:49:20.520Z,99654.25
2022-08-26T23:52:08.592Z,99655.28
2022-08-26T23:54:37.963Z,99582.66
2022-08-26T23:57:05.828Z,99588.81
2022-08-26T23:59:37.170Z,99659.03
